sensor_id;sensor_type;location;lat;lon;timestamp;P1;durP1;ratioP1;P2;durP2;ratioP2
70729;SDS011;58315;53.336;55.932;2023-04-30T00:01:50;8.45;;;3.70;;
70729;SDS011;58315;53.336;55.932;2023-04-30T00:04:16;10.40;;;3.90;;
70729;SDS011;58315;53.336;55.932;2023-04-30T00:06:42;14.13;;;4.28;;
70729;SDS011;58315;53.336;55.932;2023-04-30T00:09:08;9.00;;;4.13;;
70729;SDS011;58315;53.336;55.932;2023-04-30T00:11:35;11.02;;;4.05;;
70729;SDS011;58315;53.336;55.932;2023-04-30T00:14:01;11.40;;;4.43;;
70729;SDS011;58315;53.336;55.932;2023-04-30T00:16:27;13.15;;;4.63;;
70729;SDS011;58315;53.336;55.932;2023-04-30T00:18:53;15.13;;;5.20;;
70729;SDS011;58315;53.336;55.932;2023-04-30T00:21:19;11.07;;;4.97;;
70729;SDS011;58315;53.336;55.932;2023-04-30T00:23:45;18.52;;;4.93;;
70729;SDS011;58315;53.336;55.932;2023-04-30T00:26:11;12.15;;;4.25;;
70729;SDS011;58315;53.336;55.932;2023-04-30T00:28:38;13.70;;;4.75;;
70729;SDS011;58315;53.336;55.932;2023-04-30T00:31:04;11.65;;;4.63;;
70729;SDS011;58315;53.336;55.932;2023-04-30T00:33:34;11.40;;;4.35;;
70729;SDS011;58315;53.336;55.932;2023-04-30T00:36:00;13.32;;;4.40;;
70729;SDS011;58315;53.336;55.932;2023-04-30T00:38:27;17.38;;;4.32;;
70729;SDS011;58315;53.336;55.932;2023-04-30T00:40:53;14.50;;;4.40;;
70729;SDS011;58315;53.336;55.932;2023-04-30T00:43:19;11.45;;;4.90;;
70729;SDS011;58315;53.336;55.932;2023-04-30T00:45:45;9.88;;;4.75;;
70729;SDS011;58315;53.336;55.932;2023-04-30T00:48:11;10.77;;;4.43;;
70729;SDS011;58315;53.336;55.932;2023-04-30T00:50:37;14.15;;;4.60;;
70729;SDS011;58315;53.336;55.932;2023-04-30T00:53:06;11.23;;;4.80;;
70729;SDS011;58315;53.336;55.932;2023-04-30T00:55:32;10.02;;;4.15;;
70729;SDS011;58315;53.336;55.932;2023-04-30T00:57:58;24.83;;;4.82;;
70729;SDS011;58315;53.336;55.932;2023-04-30T01:00:26;22.95;;;4.75;;
70729;SDS011;58315;53.336;55.932;2023-04-30T01:02:52;43.30;;;5.03;;
70729;SDS011;58315;53.336;55.932;2023-04-30T01:05:18;18.60;;;5.40;;
70729;SDS011;58315;53.336;55.932;2023-04-30T01:07:44;27.52;;;5.18;;
70729;SDS011;58315;53.336;55.932;2023-04-30T01:10:11;22.67;;;4.88;;
70729;SDS011;58315;53.336;55.932;2023-04-30T01:20:40;18.23;;;5.40;;
70729;SDS011;58315;53.336;55.932;2023-04-30T01:23:17;20.45;;;9.98;;
70729;SDS011;58315;53.336;55.932;2023-04-30T01:26:06;20.13;;;4.97;;
70729;SDS011;58315;53.336;55.932;2023-04-30T01:28:39;10.63;;;4.70;;
70729;SDS011;58315;53.336;55.932;2023-04-30T01:31:14;13.25;;;5.10;;
70729;SDS011;58315;53.336;55.932;2023-04-30T01:33:43;14.57;;;4.80;;
70729;SDS011;58315;53.336;55.932;2023-04-30T01:36:12;17.52;;;4.75;;
70729;SDS011;58315;53.336;55.932;2023-04-30T01:47:00;21.17;;;5.43;;
70729;SDS011;58315;53.336;55.932;2023-04-30T01:52:33;11.90;;;5.20;;
70729;SDS011;58315;53.336;55.932;2023-04-30T01:55:13;31.00;;;5.15;;
70729;SDS011;58315;53.336;55.932;2023-04-30T01:57:56;15.32;;;4.63;;
70729;SDS011;58315;53.336;55.932;2023-04-30T02:00:24;12.43;;;5.18;;
70729;SDS011;58315;53.336;55.932;2023-04-30T02:02:53;33.35;;;5.82;;
70729;SDS011;58315;53.336;55.932;2023-04-30T02:05:19;21.02;;;5.00;;
70729;SDS011;58315;53.336;55.932;2023-04-30T02:07:47;20.58;;;5.95;;
70729;SDS011;58315;53.336;55.932;2023-04-30T02:10:15;16.88;;;5.38;;
70729;SDS011;58315;53.336;55.932;2023-04-30T02:12:45;18.30;;;5.73;;
70729;SDS011;58315;53.336;55.932;2023-04-30T02:15:13;11.50;;;5.10;;
70729;SDS011;58315;53.336;55.932;2023-04-30T02:17:40;13.13;;;5.47;;
70729;SDS011;58315;53.336;55.932;2023-04-30T02:20:07;14.45;;;6.00;;
70729;SDS011;58315;53.336;55.932;2023-04-30T02:22:34;7.75;;;5.10;;
70729;SDS011;58315;53.336;55.932;2023-04-30T02:25:01;16.30;;;5.88;;
70729;SDS011;58315;53.336;55.932;2023-04-30T02:29:58;20.52;;;6.03;;
70729;SDS011;58315;53.336;55.932;2023-04-30T02:32:24;12.48;;;5.45;;
70729;SDS011;58315;53.336;55.932;2023-04-30T02:34:51;15.20;;;6.50;;
70729;SDS011;58315;53.336;55.932;2023-04-30T02:37:17;32.80;;;6.38;;
70729;SDS011;58315;53.336;55.932;2023-04-30T02:39:43;19.15;;;6.53;;
70729;SDS011;58315;53.336;55.932;2023-04-30T02:42:09;16.40;;;6.60;;
70729;SDS011;58315;53.336;55.932;2023-04-30T02:44:35;23.48;;;6.43;;
70729;SDS011;58315;53.336;55.932;2023-04-30T02:47:03;13.77;;;6.55;;
70729;SDS011;58315;53.336;55.932;2023-04-30T02:49:31;16.55;;;6.60;;
70729;SDS011;58315;53.336;55.932;2023-04-30T02:51:57;10.57;;;6.25;;
70729;SDS011;58315;53.336;55.932;2023-04-30T02:54:23;21.63;;;6.80;;
70729;SDS011;58315;53.336;55.932;2023-04-30T02:56:50;12.85;;;6.53;;
70729;SDS011;58315;53.336;55.932;2023-04-30T02:59:16;20.85;;;7.72;;
70729;SDS011;58315;53.336;55.932;2023-04-30T03:01:42;30.90;;;6.55;;
70729;SDS011;58315;53.336;55.932;2023-04-30T03:04:08;23.83;;;7.28;;
70729;SDS011;58315;53.336;55.932;2023-04-30T03:06:34;16.40;;;7.13;;
70729;SDS011;58315;53.336;55.932;2023-04-30T03:09:00;18.95;;;6.80;;
70729;SDS011;58315;53.336;55.932;2023-04-30T03:11:26;22.05;;;7.38;;
70729;SDS011;58315;53.336;55.932;2023-04-30T03:13:52;24.30;;;7.68;;
70729;SDS011;58315;53.336;55.932;2023-04-30T03:16:19;19.65;;;7.43;;
70729;SDS011;58315;53.336;55.932;2023-04-30T03:18:47;17.35;;;7.35;;
70729;SDS011;58315;53.336;55.932;2023-04-30T03:21:14;12.23;;;7.22;;
70729;SDS011;58315;53.336;55.932;2023-04-30T03:23:41;21.83;;;8.00;;
70729;SDS011;58315;53.336;55.932;2023-04-30T03:26:07;55.65;;;23.80;;
70729;SDS011;58315;53.336;55.932;2023-04-30T03:28:33;18.48;;;8.07;;
70729;SDS011;58315;53.336;55.932;2023-04-30T03:31:01;21.00;;;8.40;;
70729;SDS011;58315;53.336;55.932;2023-04-30T03:35:57;20.35;;;8.10;;
70729;SDS011;58315;53.336;55.932;2023-04-30T03:38:23;19.25;;;8.55;;
70729;SDS011;58315;53.336;55.932;2023-04-30T03:40:51;25.90;;;8.30;;
70729;SDS011;58315;53.336;55.932;2023-04-30T03:43:17;20.67;;;8.27;;
70729;SDS011;58315;53.336;55.932;2023-04-30T03:45:43;24.17;;;7.70;;
70729;SDS011;58315;53.336;55.932;2023-04-30T03:48:09;29.35;;;7.85;;
70729;SDS011;58315;53.336;55.932;2023-04-30T03:50:35;21.10;;;8.20;;
70729;SDS011;58315;53.336;55.932;2023-04-30T03:53:01;17.50;;;8.77;;
70729;SDS011;58315;53.336;55.932;2023-04-30T03:55:28;21.92;;;9.55;;
70729;SDS011;58315;53.336;55.932;2023-04-30T03:57:54;16.92;;;7.82;;
70729;SDS011;58315;53.336;55.932;2023-04-30T04:00:20;20.25;;;8.48;;
70729;SDS011;58315;53.336;55.932;2023-04-30T04:02:50;18.85;;;8.32;;
70729;SDS011;58315;53.336;55.932;2023-04-30T04:05:16;23.73;;;8.73;;
70729;SDS011;58315;53.336;55.932;2023-04-30T04:07:43;25.10;;;9.00;;
70729;SDS011;58315;53.336;55.932;2023-04-30T04:10:09;25.08;;;9.07;;
70729;SDS011;58315;53.336;55.932;2023-04-30T04:12:35;17.10;;;8.20;;
70729;SDS011;58315;53.336;55.932;2023-04-30T04:15:02;33.72;;;9.35;;
70729;SDS011;58315;53.336;55.932;2023-04-30T04:17:31;27.17;;;8.85;;
70729;SDS011;58315;53.336;55.932;2023-04-30T04:19:57;18.67;;;8.55;;
70729;SDS011;58315;53.336;55.932;2023-04-30T04:22:24;28.00;;;9.02;;
70729;SDS011;58315;53.336;55.932;2023-04-30T04:24:51;26.90;;;9.05;;
70729;SDS011;58315;53.336;55.932;2023-04-30T04:27:20;23.15;;;8.73;;
70729;SDS011;58315;53.336;55.932;2023-04-30T04:29:46;39.33;;;9.13;;
70729;SDS011;58315;53.336;55.932;2023-04-30T04:32:13;18.67;;;8.65;;
70729;SDS011;58315;53.336;55.932;2023-04-30T04:34:41;14.73;;;8.83;;
70729;SDS011;58315;53.336;55.932;2023-04-30T04:37:09;18.02;;;8.45;;
70729;SDS011;58315;53.336;55.932;2023-04-30T04:39:36;16.70;;;8.60;;
70729;SDS011;58315;53.336;55.932;2023-04-30T04:42:04;33.20;;;9.32;;
70729;SDS011;58315;53.336;55.932;2023-04-30T04:44:31;22.95;;;8.68;;
70729;SDS011;58315;53.336;55.932;2023-04-30T04:46:58;23.27;;;8.57;;
70729;SDS011;58315;53.336;55.932;2023-04-30T04:49:24;14.52;;;8.40;;
70729;SDS011;58315;53.336;55.932;2023-04-30T04:51:52;19.35;;;8.45;;
70729;SDS011;58315;53.336;55.932;2023-04-30T04:54:19;28.50;;;9.85;;
70729;SDS011;58315;53.336;55.932;2023-04-30T04:56:46;21.15;;;9.05;;
70729;SDS011;58315;53.336;55.932;2023-04-30T04:59:12;23.73;;;8.80;;
70729;SDS011;58315;53.336;55.932;2023-04-30T05:01:38;15.95;;;8.35;;
70729;SDS011;58315;53.336;55.932;2023-04-30T05:04:07;20.13;;;8.93;;
70729;SDS011;58315;53.336;55.932;2023-04-30T05:06:34;40.50;;;9.63;;
70729;SDS011;58315;53.336;55.932;2023-04-30T05:09:00;21.60;;;8.73;;
70729;SDS011;58315;53.336;55.932;2023-04-30T05:11:27;15.05;;;8.15;;
70729;SDS011;58315;53.336;55.932;2023-04-30T05:13:53;25.02;;;8.70;;
70729;SDS011;58315;53.336;55.932;2023-04-30T05:16:20;23.40;;;9.43;;
70729;SDS011;58315;53.336;55.932;2023-04-30T05:18:45;19.45;;;8.80;;
70729;SDS011;58315;53.336;55.932;2023-04-30T05:21:11;18.73;;;8.88;;
70729;SDS011;58315;53.336;55.932;2023-04-30T05:23:37;26.30;;;8.95;;
70729;SDS011;58315;53.336;55.932;2023-04-30T05:26:04;36.92;;;8.65;;
70729;SDS011;58315;53.336;55.932;2023-04-30T05:28:30;18.80;;;8.40;;
70729;SDS011;58315;53.336;55.932;2023-04-30T05:30:56;136.10;;;11.05;;
70729;SDS011;58315;53.336;55.932;2023-04-30T05:33:22;21.52;;;8.38;;
70729;SDS011;58315;53.336;55.932;2023-04-30T05:35:48;17.98;;;8.38;;
70729;SDS011;58315;53.336;55.932;2023-04-30T05:38:14;24.40;;;8.70;;
70729;SDS011;58315;53.336;55.932;2023-04-30T05:40:40;23.88;;;8.27;;
70729;SDS011;58315;53.336;55.932;2023-04-30T05:43:06;24.85;;;9.18;;
70729;SDS011;58315;53.336;55.932;2023-04-30T05:45:33;20.40;;;8.32;;
70729;SDS011;58315;53.336;55.932;2023-04-30T05:47:59;23.65;;;8.27;;
70729;SDS011;58315;53.336;55.932;2023-04-30T05:50:26;21.27;;;8.68;;
70729;SDS011;58315;53.336;55.932;2023-04-30T05:52:52;18.25;;;8.20;;
70729;SDS011;58315;53.336;55.932;2023-04-30T05:55:18;20.02;;;8.45;;
70729;SDS011;58315;53.336;55.932;2023-04-30T05:57:45;16.60;;;7.93;;
70729;SDS011;58315;53.336;55.932;2023-04-30T06:00:11;19.48;;;7.93;;
70729;SDS011;58315;53.336;55.932;2023-04-30T06:02:39;19.80;;;8.55;;
70729;SDS011;58315;53.336;55.932;2023-04-30T06:05:09;20.13;;;7.78;;
70729;SDS011;58315;53.336;55.932;2023-04-30T06:07:35;15.10;;;7.57;;
70729;SDS011;58315;53.336;55.932;2023-04-30T06:10:02;18.27;;;8.20;;
70729;SDS011;58315;53.336;55.932;2023-04-30T06:12:32;37.63;;;8.57;;
70729;SDS011;58315;53.336;55.932;2023-04-30T06:14:59;20.48;;;8.52;;
70729;SDS011;58315;53.336;55.932;2023-04-30T06:17:25;20.80;;;8.20;;
70729;SDS011;58315;53.336;55.932;2023-04-30T06:19:51;29.15;;;8.00;;
70729;SDS011;58315;53.336;55.932;2023-04-30T06:22:17;23.45;;;8.20;;
70729;SDS011;58315;53.336;55.932;2023-04-30T06:24:43;24.80;;;9.00;;
70729;SDS011;58315;53.336;55.932;2023-04-30T06:27:10;16.67;;;7.35;;
70729;SDS011;58315;53.336;55.932;2023-04-30T06:29:36;18.70;;;8.02;;
70729;SDS011;58315;53.336;55.932;2023-04-30T06:32:02;19.55;;;8.20;;
70729;SDS011;58315;53.336;55.932;2023-04-30T06:34:28;25.90;;;7.68;;
70729;SDS011;58315;53.336;55.932;2023-04-30T06:36:55;19.88;;;7.50;;
70729;SDS011;58315;53.336;55.932;2023-04-30T06:39:21;26.15;;;7.40;;
70729;SDS011;58315;53.336;55.932;2023-04-30T06:41:47;22.30;;;8.45;;
70729;SDS011;58315;53.336;55.932;2023-04-30T06:44:14;15.70;;;7.25;;
70729;SDS011;58315;53.336;55.932;2023-04-30T06:46:41;18.98;;;8.18;;
70729;SDS011;58315;53.336;55.932;2023-04-30T06:49:07;19.70;;;7.25;;
70729;SDS011;58315;53.336;55.932;2023-04-30T06:51:33;16.20;;;7.15;;
70729;SDS011;58315;53.336;55.932;2023-04-30T06:53:59;21.08;;;7.22;;
70729;SDS011;58315;53.336;55.932;2023-04-30T06:56:25;29.25;;;7.80;;
70729;SDS011;58315;53.336;55.932;2023-04-30T06:58:51;25.08;;;7.68;;
70729;SDS011;58315;53.336;55.932;2023-04-30T07:01:17;27.92;;;7.68;;
70729;SDS011;58315;53.336;55.932;2023-04-30T07:03:44;15.50;;;6.88;;
70729;SDS011;58315;53.336;55.932;2023-04-30T07:06:10;16.30;;;7.03;;
70729;SDS011;58315;53.336;55.932;2023-04-30T07:08:36;18.38;;;7.13;;
70729;SDS011;58315;53.336;55.932;2023-04-30T07:11:03;61.47;;;8.70;;
70729;SDS011;58315;53.336;55.932;2023-04-30T07:13:28;14.75;;;6.78;;
70729;SDS011;58315;53.336;55.932;2023-04-30T07:15:54;33.67;;;7.90;;
70729;SDS011;58315;53.336;55.932;2023-04-30T07:18:21;13.52;;;7.13;;
70729;SDS011;58315;53.336;55.932;2023-04-30T07:20:47;17.45;;;7.20;;
70729;SDS011;58315;53.336;55.932;2023-04-30T07:23:13;13.57;;;6.72;;
70729;SDS011;58315;53.336;55.932;2023-04-30T07:25:39;13.80;;;6.82;;
70729;SDS011;58315;53.336;55.932;2023-04-30T07:28:05;18.30;;;7.03;;
70729;SDS011;58315;53.336;55.932;2023-04-30T07:30:31;20.90;;;7.07;;
70729;SDS011;58315;53.336;55.932;2023-04-30T07:32:58;20.40;;;6.93;;
70729;SDS011;58315;53.336;55.932;2023-04-30T07:35:24;23.00;;;6.80;;
70729;SDS011;58315;53.336;55.932;2023-04-30T07:37:50;18.60;;;6.75;;
70729;SDS011;58315;53.336;55.932;2023-04-30T07:40:16;16.88;;;6.65;;
70729;SDS011;58315;53.336;55.932;2023-04-30T07:42:42;21.08;;;6.68;;
70729;SDS011;58315;53.336;55.932;2023-04-30T07:45:10;22.52;;;6.78;;
70729;SDS011;58315;53.336;55.932;2023-04-30T07:47:38;16.27;;;6.32;;
70729;SDS011;58315;53.336;55.932;2023-04-30T07:50:04;19.98;;;6.72;;
70729;SDS011;58315;53.336;55.932;2023-04-30T07:52:31;29.15;;;6.22;;
70729;SDS011;58315;53.336;55.932;2023-04-30T07:54:57;13.50;;;5.75;;
70729;SDS011;58315;53.336;55.932;2023-04-30T07:57:23;12.43;;;6.30;;
70729;SDS011;58315;53.336;55.932;2023-04-30T07:59:54;53.47;;;7.60;;
70729;SDS011;58315;53.336;55.932;2023-04-30T08:02:20;16.33;;;5.75;;
70729;SDS011;58315;53.336;55.932;2023-04-30T08:04:47;23.08;;;5.68;;
70729;SDS011;58315;53.336;55.932;2023-04-30T08:07:13;20.45;;;5.75;;
70729;SDS011;58315;53.336;55.932;2023-04-30T08:09:42;23.63;;;5.40;;
70729;SDS011;58315;53.336;55.932;2023-04-30T08:12:08;13.85;;;5.85;;
70729;SDS011;58315;53.336;55.932;2023-04-30T08:14:35;27.05;;;6.30;;
70729;SDS011;58315;53.336;55.932;2023-04-30T08:17:01;14.43;;;5.32;;
70729;SDS011;58315;53.336;55.932;2023-04-30T08:19:28;46.25;;;5.88;;
70729;SDS011;58315;53.336;55.932;2023-04-30T08:21:54;13.07;;;4.68;;
70729;SDS011;58315;53.336;55.932;2023-04-30T08:24:21;14.25;;;5.90;;
70729;SDS011;58315;53.336;55.932;2023-04-30T08:26:47;16.55;;;5.70;;
70729;SDS011;58315;53.336;55.932;2023-04-30T08:29:13;20.92;;;5.20;;
70729;SDS011;58315;53.336;55.932;2023-04-30T08:31:39;14.05;;;5.47;;
70729;SDS011;58315;53.336;55.932;2023-04-30T08:34:05;10.25;;;5.00;;
70729;SDS011;58315;53.336;55.932;2023-04-30T08:36:32;21.15;;;6.22;;
70729;SDS011;58315;53.336;55.932;2023-04-30T08:38:58;18.70;;;6.00;;
70729;SDS011;58315;53.336;55.932;2023-04-30T08:41:25;52.88;;;6.10;;
70729;SDS011;58315;53.336;55.932;2023-04-30T08:43:54;21.00;;;6.40;;
70729;SDS011;58315;53.336;55.932;2023-04-30T08:46:25;24.80;;;5.85;;
70729;SDS011;58315;53.336;55.932;2023-04-30T08:48:53;14.45;;;5.25;;
70729;SDS011;58315;53.336;55.932;2023-04-30T08:51:20;22.30;;;5.13;;
70729;SDS011;58315;53.336;55.932;2023-04-30T08:53:47;21.83;;;5.30;;
70729;SDS011;58315;53.336;55.932;2023-04-30T08:56:15;11.95;;;5.15;;
70729;SDS011;58315;53.336;55.932;2023-04-30T08:58:41;22.52;;;5.72;;
70729;SDS011;58315;53.336;55.932;2023-04-30T09:01:08;23.85;;;6.15;;
70729;SDS011;58315;53.336;55.932;2023-04-30T09:03:35;13.30;;;5.53;;
70729;SDS011;58315;53.336;55.932;2023-04-30T09:06:01;23.05;;;5.97;;
70729;SDS011;58315;53.336;55.932;2023-04-30T09:08:46;21.10;;;5.60;;
70729;SDS011;58315;53.336;55.932;2023-04-30T09:11:20;18.52;;;6.15;;
70729;SDS011;58315;53.336;55.932;2023-04-30T09:13:49;25.23;;;5.25;;
70729;SDS011;58315;53.336;55.932;2023-04-30T09:16:19;13.45;;;5.50;;
70729;SDS011;58315;53.336;55.932;2023-04-30T09:18:46;21.95;;;6.68;;
70729;SDS011;58315;53.336;55.932;2023-04-30T09:21:13;19.73;;;5.43;;
70729;SDS011;58315;53.336;55.932;2023-04-30T09:23:55;16.95;;;5.63;;
70729;SDS011;58315;53.336;55.932;2023-04-30T09:26:30;16.33;;;5.70;;
70729;SDS011;58315;53.336;55.932;2023-04-30T09:28:57;56.33;;;6.13;;
70729;SDS011;58315;53.336;55.932;2023-04-30T09:31:23;19.05;;;5.43;;
70729;SDS011;58315;53.336;55.932;2023-04-30T09:33:50;22.50;;;5.13;;
70729;SDS011;58315;53.336;55.932;2023-04-30T09:36:21;26.73;;;5.22;;
70729;SDS011;58315;53.336;55.932;2023-04-30T09:38:47;18.30;;;4.55;;
70729;SDS011;58315;53.336;55.932;2023-04-30T09:41:26;18.60;;;4.97;;
70729;SDS011;58315;53.336;55.932;2023-04-30T09:43:53;26.85;;;5.15;;
70729;SDS011;58315;53.336;55.932;2023-04-30T09:46:21;17.73;;;4.80;;
70729;SDS011;58315;53.336;55.932;2023-04-30T09:48:57;17.08;;;5.22;;
70729;SDS011;58315;53.336;55.932;2023-04-30T09:51:25;22.30;;;4.88;;
70729;SDS011;58315;53.336;55.932;2023-04-30T09:53:52;14.02;;;4.90;;
70729;SDS011;58315;53.336;55.932;2023-04-30T09:56:20;28.65;;;5.32;;
70729;SDS011;58315;53.336;55.932;2023-04-30T09:58:49;28.25;;;5.40;;
70729;SDS011;58315;53.336;55.932;2023-04-30T10:03:44;19.80;;;4.97;;
70729;SDS011;58315;53.336;55.932;2023-04-30T10:06:11;20.73;;;5.70;;
70729;SDS011;58315;53.336;55.932;2023-04-30T10:08:39;33.88;;;6.05;;
70729;SDS011;58315;53.336;55.932;2023-04-30T10:11:07;33.53;;;6.10;;
70729;SDS011;58315;53.336;55.932;2023-04-30T10:13:37;22.77;;;5.22;;
70729;SDS011;58315;53.336;55.932;2023-04-30T10:21:42;20.48;;;5.32;;
70729;SDS011;58315;53.336;55.932;2023-04-30T10:24:14;12.57;;;4.70;;
70729;SDS011;58315;53.336;55.932;2023-04-30T10:26:44;25.55;;;5.13;;
70729;SDS011;58315;53.336;55.932;2023-04-30T10:29:12;14.80;;;4.53;;
70729;SDS011;58315;53.336;55.932;2023-04-30T10:31:40;22.48;;;5.15;;
70729;SDS011;58315;53.336;55.932;2023-04-30T10:36:39;15.73;;;4.97;;
70729;SDS011;58315;53.336;55.932;2023-04-30T10:39:10;10.75;;;4.63;;
70729;SDS011;58315;53.336;55.932;2023-04-30T10:41:37;23.60;;;4.93;;
70729;SDS011;58315;53.336;55.932;2023-04-30T10:44:03;16.75;;;4.63;;
70729;SDS011;58315;53.336;55.932;2023-04-30T10:46:35;11.53;;;5.07;;
70729;SDS011;58315;53.336;55.932;2023-04-30T10:49:01;24.57;;;4.97;;
70729;SDS011;58315;53.336;55.932;2023-04-30T10:51:43;18.50;;;4.90;;
70729;SDS011;58315;53.336;55.932;2023-04-30T10:54:12;13.27;;;5.38;;
70729;SDS011;58315;53.336;55.932;2023-04-30T10:56:52;19.13;;;4.60;;
70729;SDS011;58315;53.336;55.932;2023-04-30T10:59:22;16.88;;;4.80;;
70729;SDS011;58315;53.336;55.932;2023-04-30T11:01:55;174.25;;;11.57;;
70729;SDS011;58315;53.336;55.932;2023-04-30T11:04:26;16.63;;;5.25;;
70729;SDS011;58315;53.336;55.932;2023-04-30T11:12:04;13.65;;;4.40;;
70729;SDS011;58315;53.336;55.932;2023-04-30T11:14:45;23.10;;;4.50;;
70729;SDS011;58315;53.336;55.932;2023-04-30T11:17:12;9.18;;;4.55;;
70729;SDS011;58315;53.336;55.932;2023-04-30T11:19:49;20.92;;;4.80;;
70729;SDS011;58315;53.336;55.932;2023-04-30T11:22:17;15.23;;;4.80;;
70729;SDS011;58315;53.336;55.932;2023-04-30T11:29:51;27.30;;;9.80;;
70729;SDS011;58315;53.336;55.932;2023-04-30T11:32:19;19.65;;;4.28;;
70729;SDS011;58315;53.336;55.932;2023-04-30T11:34:46;11.13;;;4.30;;
70729;SDS011;58315;53.336;55.932;2023-04-30T11:37:20;10.05;;;4.40;;
70729;SDS011;58315;53.336;55.932;2023-04-30T11:39:54;11.93;;;4.03;;
70729;SDS011;58315;53.336;55.932;2023-04-30T11:42:22;14.63;;;4.07;;
70729;SDS011;58315;53.336;55.932;2023-04-30T11:44:48;32.33;;;4.10;;
70729;SDS011;58315;53.336;55.932;2023-04-30T11:47:14;17.60;;;3.95;;
70729;SDS011;58315;53.336;55.932;2023-04-30T11:49:43;19.10;;;3.88;;
70729;SDS011;58315;53.336;55.932;2023-04-30T11:52:11;26.65;;;4.22;;
70729;SDS011;58315;53.336;55.932;2023-04-30T11:54:38;10.10;;;3.67;;
70729;SDS011;58315;53.336;55.932;2023-04-30T11:57:04;24.95;;;4.72;;
70729;SDS011;58315;53.336;55.932;2023-04-30T11:59:41;11.40;;;4.00;;
70729;SDS011;58315;53.336;55.932;2023-04-30T12:02:08;32.05;;;4.63;;
70729;SDS011;58315;53.336;55.932;2023-04-30T12:04:35;13.90;;;4.20;;
70729;SDS011;58315;53.336;55.932;2023-04-30T12:07:01;16.70;;;3.80;;
70729;SDS011;58315;53.336;55.932;2023-04-30T12:09:27;10.60;;;3.88;;
70729;SDS011;58315;53.336;55.932;2023-04-30T12:11:54;14.38;;;3.97;;
70729;SDS011;58315;53.336;55.932;2023-04-30T12:14:23;17.35;;;4.18;;
70729;SDS011;58315;53.336;55.932;2023-04-30T12:16:50;20.98;;;4.18;;
70729;SDS011;58315;53.336;55.932;2023-04-30T12:19:17;29.65;;;4.35;;
70729;SDS011;58315;53.336;55.932;2023-04-30T12:21:44;30.90;;;4.63;;
70729;SDS011;58315;53.336;55.932;2023-04-30T12:24:12;17.02;;;4.93;;
70729;SDS011;58315;53.336;55.932;2023-04-30T12:26:40;11.27;;;4.03;;
70729;SDS011;58315;53.336;55.932;2023-04-30T12:29:10;10.95;;;3.85;;
70729;SDS011;58315;53.336;55.932;2023-04-30T12:31:40;11.38;;;4.55;;
70729;SDS011;58315;53.336;55.932;2023-04-30T12:34:11;9.40;;;4.55;;
70729;SDS011;58315;53.336;55.932;2023-04-30T12:36:39;13.27;;;5.07;;
70729;SDS011;58315;53.336;55.932;2023-04-30T12:39:09;20.15;;;4.80;;
70729;SDS011;58315;53.336;55.932;2023-04-30T12:41:40;23.20;;;4.95;;
70729;SDS011;58315;53.336;55.932;2023-04-30T12:44:20;27.10;;;5.30;;
70729;SDS011;58315;53.336;55.932;2023-04-30T12:46:48;10.88;;;5.13;;
70729;SDS011;58315;53.336;55.932;2023-04-30T12:49:22;12.73;;;4.57;;
70729;SDS011;58315;53.336;55.932;2023-04-30T12:51:57;12.68;;;5.22;;
70729;SDS011;58315;53.336;55.932;2023-04-30T12:54:25;22.70;;;5.30;;
70729;SDS011;58315;53.336;55.932;2023-04-30T12:57:10;19.90;;;5.10;;
70729;SDS011;58315;53.336;55.932;2023-04-30T12:59:38;25.27;;;5.55;;
70729;SDS011;58315;53.336;55.932;2023-04-30T13:02:24;37.20;;;5.93;;
70729;SDS011;58315;53.336;55.932;2023-04-30T13:04:52;20.88;;;5.47;;
70729;SDS011;58315;53.336;55.932;2023-04-30T13:07:18;16.23;;;5.20;;
70729;SDS011;58315;53.336;55.932;2023-04-30T13:09:46;23.05;;;5.88;;
70729;SDS011;58315;53.336;55.932;2023-04-30T13:12:12;29.17;;;6.00;;
70729;SDS011;58315;53.336;55.932;2023-04-30T13:14:38;12.32;;;5.40;;
70729;SDS011;58315;53.336;55.932;2023-04-30T13:17:04;19.15;;;5.07;;
70729;SDS011;58315;53.336;55.932;2023-04-30T13:19:32;18.55;;;5.32;;
70729;SDS011;58315;53.336;55.932;2023-04-30T13:21:59;17.23;;;5.85;;
70729;SDS011;58315;53.336;55.932;2023-04-30T13:24:26;16.63;;;6.35;;
70729;SDS011;58315;53.336;55.932;2023-04-30T13:26:53;27.98;;;5.15;;
70729;SDS011;58315;53.336;55.932;2023-04-30T13:29:19;13.32;;;5.45;;
70729;SDS011;58315;53.336;55.932;2023-04-30T13:31:48;28.92;;;6.07;;
70729;SDS011;58315;53.336;55.932;2023-04-30T13:34:14;21.58;;;6.03;;
70729;SDS011;58315;53.336;55.932;2023-04-30T13:36:40;13.45;;;5.40;;
70729;SDS011;58315;53.336;55.932;2023-04-30T13:39:06;27.35;;;6.15;;
70729;SDS011;58315;53.336;55.932;2023-04-30T13:41:32;14.13;;;5.78;;
70729;SDS011;58315;53.336;55.932;2023-04-30T13:43:58;25.60;;;5.88;;
70729;SDS011;58315;53.336;55.932;2023-04-30T13:46:25;33.40;;;6.57;;
70729;SDS011;58315;53.336;55.932;2023-04-30T13:48:51;28.33;;;6.32;;
70729;SDS011;58315;53.336;55.932;2023-04-30T13:51:18;12.80;;;5.38;;
70729;SDS011;58315;53.336;55.932;2023-04-30T13:53:45;20.80;;;5.50;;
70729;SDS011;58315;53.336;55.932;2023-04-30T13:56:11;16.73;;;5.55;;
70729;SDS011;58315;53.336;55.932;2023-04-30T13:58:37;21.10;;;5.63;;
70729;SDS011;58315;53.336;55.932;2023-04-30T14:01:04;15.63;;;5.38;;
70729;SDS011;58315;53.336;55.932;2023-04-30T14:03:30;19.00;;;6.22;;
70729;SDS011;58315;53.336;55.932;2023-04-30T14:05:56;14.50;;;6.15;;
70729;SDS011;58315;53.336;55.932;2023-04-30T14:08:23;15.52;;;5.70;;
70729;SDS011;58315;53.336;55.932;2023-04-30T14:10:49;17.52;;;5.57;;
70729;SDS011;58315;53.336;55.932;2023-04-30T14:13:15;22.73;;;6.43;;
70729;SDS011;58315;53.336;55.932;2023-04-30T14:15:42;18.02;;;6.07;;
70729;SDS011;58315;53.336;55.932;2023-04-30T14:18:08;23.50;;;6.28;;
70729;SDS011;58315;53.336;55.932;2023-04-30T14:20:34;19.55;;;6.43;;
70729;SDS011;58315;53.336;55.932;2023-04-30T14:23:00;18.50;;;6.38;;
70729;SDS011;58315;53.336;55.932;2023-04-30T14:25:26;12.82;;;6.30;;
70729;SDS011;58315;53.336;55.932;2023-04-30T14:27:53;15.02;;;6.25;;
70729;SDS011;58315;53.336;55.932;2023-04-30T14:30:19;13.68;;;6.28;;
70729;SDS011;58315;53.336;55.932;2023-04-30T14:32:45;23.98;;;6.10;;
70729;SDS011;58315;53.336;55.932;2023-04-30T14:35:11;18.90;;;6.07;;
70729;SDS011;58315;53.336;55.932;2023-04-30T14:37:36;15.90;;;5.50;;
70729;SDS011;58315;53.336;55.932;2023-04-30T14:40:03;23.73;;;5.90;;
70729;SDS011;58315;53.336;55.932;2023-04-30T14:42:31;15.77;;;6.25;;
70729;SDS011;58315;53.336;55.932;2023-04-30T14:44:58;22.52;;;6.32;;
70729;SDS011;58315;53.336;55.932;2023-04-30T14:47:24;19.05;;;6.50;;
70729;SDS011;58315;53.336;55.932;2023-04-30T14:49:52;23.23;;;6.50;;
70729;SDS011;58315;53.336;55.932;2023-04-30T14:52:18;18.65;;;6.45;;
70729;SDS011;58315;53.336;55.932;2023-04-30T14:54:45;18.80;;;6.38;;
70729;SDS011;58315;53.336;55.932;2023-04-30T14:57:11;23.15;;;6.18;;
70729;SDS011;58315;53.336;55.932;2023-04-30T14:59:37;18.83;;;6.65;;
70729;SDS011;58315;53.336;55.932;2023-04-30T15:02:07;24.40;;;7.13;;
70729;SDS011;58315;53.336;55.932;2023-04-30T15:04:33;29.40;;;9.65;;
70729;SDS011;58315;53.336;55.932;2023-04-30T15:06:59;27.02;;;6.32;;
70729;SDS011;58315;53.336;55.932;2023-04-30T15:09:27;23.02;;;6.93;;